sensor_id;sensor_type;location;lat;lon;timestamp;temperature;humidity
5978;DHT22;3015;51.390;12.256;2022-08-24T00:02:19;14.70;1.00
5978;DHT22;3015;51.390;12.256;2022-08-24T00:04:45;14.80;1.00
5978;DHT22;3015;51.390;12.256;2022-08-24T00:07:12;14.90;1.00
5978;DHT22;3015;51.390;12.256;2022-08-24T00:09:37;14.80;99.90
5978;DHT22;3015;51.390;12.256;2022-08-24T00:12:03;14.70;1.00
5978;DHT22;3015;51.390;12.256;2022-08-24T00:14:29;14.60;1.00
5978;DHT22;3015;51.390;12.256;2022-08-24T00:16:56;14.40;99.90
5978;DHT22;3015;51.390;12.256;2022-08-24T00:19:25;14.30;1.00
5978;DHT22;3015;51.390;12.256;2022-08-24T00:21:51;14.30;99.90
5978;DHT22;3015;51.390;12.256;2022-08-24T00:24:18;14.20;1.00
5978;DHT22;3015;51.390;12.256;2022-08-24T00:26:44;14.30;18.70
5978;DHT22;3015;51.390;12.256;2022-08-24T00:29:12;14.20;1.00
5978;DHT22;3015;51.390;12.256;2022-08-24T00:31:38;14.30;52.80
5978;DHT22;3015;51.390;12.256;2022-08-24T00:34:04;14.20;99.90
5978;DHT22;3015;51.390;12.256;2022-08-24T00:36:31;14.20;1.00
5978;DHT22;3015;51.390;12.256;2022-08-24T00:38:58;14.10;1.00
5978;DHT22;3015;51.390;12.256;2022-08-24T00:41:24;14.10;1.00
5978;DHT22;3015;51.390;12.256;2022-08-24T00:43:59;14.10;99.90
5978;DHT22;3015;51.390;12.256;2022-08-24T00:49:05;14.20;1.00
5978;DHT22;3015;51.390;12.256;2022-08-24T00:54:23;14.00;99.90
5978;DHT22;3015;51.390;12.256;2022-08-24T00:56:54;14.10;99.90
5978;DHT22;3015;51.390;12.256;2022-08-24T00:59:31;14.30;99.90
5978;DHT22;3015;51.390;12.256;2022-08-24T01:02:04;14.40;1.00
5978;DHT22;3015;51.390;12.256;2022-08-24T01:04:37;14.30;99.90
5978;DHT22;3015;51.390;12.256;2022-08-24T01:07:05;14.20;1.00
5978;DHT22;3015;51.390;12.256;2022-08-24T01:09:30;14.20;1.00
5978;DHT22;3015;51.390;12.256;2022-08-24T01:11:56;14.20;99.90
5978;DHT22;3015;51.390;12.256;2022-08-24T01:14:23;14.10;99.90
5978;DHT22;3015;51.390;12.256;2022-08-24T01:16:49;14.00;1.00
5978;DHT22;3015;51.390;12.256;2022-08-24T01:19:41;14.00;99.90
5978;DHT22;3015;51.390;12.256;2022-08-24T01:24:52;14.00;1.00
5978;DHT22;3015;51.390;12.256;2022-08-24T01:27:18;13.90;1.00
5978;DHT22;3015;51.390;12.256;2022-08-24T01:29:45;13.80;99.90
5978;DHT22;3015;51.390;12.256;2022-08-24T01:32:11;13.80;99.90
5978;DHT22;3015;51.390;12.256;2022-08-24T01:34:37;13.70;99.90
5978;DHT22;3015;51.390;12.256;2022-08-24T01:37:03;13.70;99.90
5978;DHT22;3015;51.390;12.256;2022-08-24T01:39:32;13.80;1.00
5978;DHT22;3015;51.390;12.256;2022-08-24T01:41:59;13.80;1.00
5978;DHT22;3015;51.390;12.256;2022-08-24T01:44:27;13.70;93.50
5978;DHT22;3015;51.390;12.256;2022-08-24T01:46:54;13.90;99.90
5978;DHT22;3015;51.390;12.256;2022-08-24T01:49:26;13.90;94.00
5978;DHT22;3015;51.390;12.256;2022-08-24T01:51:53;14.00;99.90
5978;DHT22;3015;51.390;12.256;2022-08-24T01:54:18;13.80;1.00
5978;DHT22;3015;51.390;12.256;2022-08-24T01:56:47;13.70;1.00
5978;DHT22;3015;51.390;12.256;2022-08-24T01:59:13;13.70;1.00
5978;DHT22;3015;51.390;12.256;2022-08-24T02:01:44;13.70;1.00
5978;DHT22;3015;51.390;12.256;2022-08-24T02:04:11;13.60;99.90
5978;DHT22;3015;51.390;12.256;2022-08-24T02:06:37;13.60;1.00
5978;DHT22;3015;51.390;12.256;2022-08-24T02:09:03;13.50;1.00
5978;DHT22;3015;51.390;12.256;2022-08-24T02:11:29;13.40;1.00
5978;DHT22;3015;51.390;12.256;2022-08-24T02:13:55;13.50;43.60
5978;DHT22;3015;51.390;12.256;2022-08-24T02:16:21;13.70;99.90
5978;DHT22;3015;51.390;12.256;2022-08-24T02:18:47;13.70;1.00
5978;DHT22;3015;51.390;12.256;2022-08-24T02:21:13;13.50;1.00
5978;DHT22;3015;51.390;12.256;2022-08-24T02:23:40;13.40;99.90
5978;DHT22;3015;51.390;12.256;2022-08-24T02:26:08;13.30;1.00
5978;DHT22;3015;51.390;12.256;2022-08-24T02:28:35;13.20;1.00
5978;DHT22;3015;51.390;12.256;2022-08-24T02:31:01;13.20;1.00
5978;DHT22;3015;51.390;12.256;2022-08-24T02:33:29;13.30;99.90
5978;DHT22;3015;51.390;12.256;2022-08-24T02:35:54;13.50;99.90
5978;DHT22;3015;51.390;12.256;2022-08-24T02:38:20;13.50;99.90
5978;DHT22;3015;51.390;12.256;2022-08-24T02:40:46;13.60;99.90
5978;DHT22;3015;51.390;12.256;2022-08-24T02:43:12;13.70;99.90
5978;DHT22;3015;51.390;12.256;2022-08-24T02:45:40;13.70;99.90
5978;DHT22;3015;51.390;12.256;2022-08-24T02:48:07;13.60;99.90
5978;DHT22;3015;51.390;12.256;2022-08-24T02:50:40;13.40;99.90
5978;DHT22;3015;51.390;12.256;2022-08-24T02:53:07;13.30;99.90
5978;DHT22;3015;51.390;12.256;2022-08-24T02:55:33;13.20;99.90
5978;DHT22;3015;51.390;12.256;2022-08-24T02:57:59;13.10;1.00
5978;DHT22;3015;51.390;12.256;2022-08-24T03:00:25;13.10;1.00
5978;DHT22;3015;51.390;12.256;2022-08-24T03:02:53;13.00;1.00
5978;DHT22;3015;51.390;12.256;2022-08-24T03:05:20;13.00;1.00
5978;DHT22;3015;51.390;12.256;2022-08-24T03:07:46;13.10;99.90
5978;DHT22;3015;51.390;12.256;2022-08-24T03:10:12;13.10;1.00
5978;DHT22;3015;51.390;12.256;2022-08-24T03:12:38;13.10;99.90
5978;DHT22;3015;51.390;12.256;2022-08-24T03:15:07;13.20;1.00
5978;DHT22;3015;51.390;12.256;2022-08-24T03:17:35;13.20;1.00
5978;DHT22;3015;51.390;12.256;2022-08-24T03:20:03;13.10;99.90
5978;DHT22;3015;51.390;12.256;2022-08-24T03:22:29;13.00;1.00
5978;DHT22;3015;51.390;12.256;2022-08-24T03:24:54;13.00;99.90
5978;DHT22;3015;51.390;12.256;2022-08-24T03:27:20;12.90;1.00
5978;DHT22;3015;51.390;12.256;2022-08-24T03:29:46;12.90;1.00
5978;DHT22;3015;51.390;12.256;2022-08-24T03:32:12;12.90;1.00
5978;DHT22;3015;51.390;12.256;2022-08-24T03:34:38;12.90;99.90
5978;DHT22;3015;51.390;12.256;2022-08-24T03:37:03;12.90;1.00
5978;DHT22;3015;51.390;12.256;2022-08-24T03:39:29;12.90;99.90
5978;DHT22;3015;51.390;12.256;2022-08-24T03:41:55;13.00;99.90
5978;DHT22;3015;51.390;12.256;2022-08-24T03:44:21;13.10;1.00
5978;DHT22;3015;51.390;12.256;2022-08-24T03:46:50;13.10;1.00
5978;DHT22;3015;51.390;12.256;2022-08-24T03:49:17;13.10;1.00
5978;DHT22;3015;51.390;12.256;2022-08-24T03:51:42;13.00;23.30
5978;DHT22;3015;51.390;12.256;2022-08-24T03:54:09;13.00;99.90
5978;DHT22;3015;51.390;12.256;2022-08-24T03:56:35;13.00;1.00
5978;DHT22;3015;51.390;12.256;2022-08-24T03:59:01;13.10;1.00
5978;DHT22;3015;51.390;12.256;2022-08-24T04:01:26;13.00;1.00
5978;DHT22;3015;51.390;12.256;2022-08-24T04:03:52;13.10;99.90
5978;DHT22;3015;51.390;12.256;2022-08-24T04:06:20;13.00;1.00
5978;DHT22;3015;51.390;12.256;2022-08-24T04:08:46;13.00;1.00
5978;DHT22;3015;51.390;12.256;2022-08-24T04:11:15;13.00;1.00
5978;DHT22;3015;51.390;12.256;2022-08-24T04:13:42;13.00;99.90
5978;DHT22;3015;51.390;12.256;2022-08-24T04:16:10;12.90;16.10
5978;DHT22;3015;51.390;12.256;2022-08-24T04:18:38;12.80;99.90
5978;DHT22;3015;51.390;12.256;2022-08-24T04:21:04;12.80;99.90
5978;DHT22;3015;51.390;12.256;2022-08-24T04:23:31;12.80;1.00
5978;DHT22;3015;51.390;12.256;2022-08-24T04:26:02;12.90;91.60
5978;DHT22;3015;51.390;12.256;2022-08-24T04:28:29;12.90;99.90
5978;DHT22;3015;51.390;12.256;2022-08-24T04:30:55;13.00;1.00
5978;DHT22;3015;51.390;12.256;2022-08-24T04:33:21;12.90;99.90
5978;DHT22;3015;51.390;12.256;2022-08-24T04:35:48;12.90;99.90
5978;DHT22;3015;51.390;12.256;2022-08-24T04:38:18;12.80;27.10
5978;DHT22;3015;51.390;12.256;2022-08-24T04:40:45;12.80;1.00
5978;DHT22;3015;51.390;12.256;2022-08-24T04:43:12;12.80;1.00
5978;DHT22;3015;51.390;12.256;2022-08-24T04:45:44;12.90;99.90
5978;DHT22;3015;51.390;12.256;2022-08-24T04:48:14;12.90;99.90
5978;DHT22;3015;51.390;12.256;2022-08-24T04:50:42;13.00;99.90
5978;DHT22;3015;51.390;12.256;2022-08-24T04:53:09;13.00;1.00
5978;DHT22;3015;51.390;12.256;2022-08-24T04:55:44;13.20;99.90
5978;DHT22;3015;51.390;12.256;2022-08-24T04:58:12;13.20;1.00
5978;DHT22;3015;51.390;12.256;2022-08-24T05:00:38;13.40;99.90
5978;DHT22;3015;51.390;12.256;2022-08-24T05:03:03;13.40;25.90
5978;DHT22;3015;51.390;12.256;2022-08-24T05:05:29;13.40;1.00
5978;DHT22;3015;51.390;12.256;2022-08-24T05:07:55;13.50;99.90
5978;DHT22;3015;51.390;12.256;2022-08-24T05:10:20;13.50;75.10
5978;DHT22;3015;51.390;12.256;2022-08-24T05:12:46;13.50;1.00
5978;DHT22;3015;51.390;12.256;2022-08-24T05:15:12;13.70;99.90
5978;DHT22;3015;51.390;12.256;2022-08-24T05:17:38;13.80;63.30
5978;DHT22;3015;51.390;12.256;2022-08-24T05:20:06;14.00;99.90
5978;DHT22;3015;51.390;12.256;2022-08-24T05:22:33;14.10;99.90
5978;DHT22;3015;51.390;12.256;2022-08-24T05:24:59;14.10;1.00
5978;DHT22;3015;51.390;12.256;2022-08-24T05:27:25;14.20;99.90
5978;DHT22;3015;51.390;12.256;2022-08-24T05:29:54;14.30;99.90
5978;DHT22;3015;51.390;12.256;2022-08-24T05:32:20;14.40;1.00
5978;DHT22;3015;51.390;12.256;2022-08-24T05:34:46;14.50;1.00
5978;DHT22;3015;51.390;12.256;2022-08-24T05:37:12;14.70;99.90
5978;DHT22;3015;51.390;12.256;2022-08-24T05:39:37;14.80;1.00
5978;DHT22;3015;51.390;12.256;2022-08-24T05:42:03;15.00;99.90
5978;DHT22;3015;51.390;12.256;2022-08-24T05:44:29;15.10;1.00
5978;DHT22;3015;51.390;12.256;2022-08-24T05:46:55;15.40;1.00
5978;DHT22;3015;51.390;12.256;2022-08-24T05:49:23;15.50;1.00
5978;DHT22;3015;51.390;12.256;2022-08-24T05:51:49;15.80;1.00
5978;DHT22;3015;51.390;12.256;2022-08-24T05:54:14;16.10;35.70
5978;DHT22;3015;51.390;12.256;2022-08-24T05:56:40;16.30;99.90
5978;DHT22;3015;51.390;12.256;2022-08-24T05:59:06;16.50;99.90
5978;DHT22;3015;51.390;12.256;2022-08-24T06:01:32;16.70;16.90
5978;DHT22;3015;51.390;12.256;2022-08-24T06:03:58;17.00;99.90
5978;DHT22;3015;51.390;12.256;2022-08-24T06:06:25;17.20;1.00
5978;DHT22;3015;51.390;12.256;2022-08-24T06:08:54;17.50;99.90
5978;DHT22;3015;51.390;12.256;2022-08-24T06:13:51;17.90;99.90
5978;DHT22;3015;51.390;12.256;2022-08-24T06:16:18;18.10;1.00
5978;DHT22;3015;51.390;12.256;2022-08-24T06:18:43;18.40;99.90
5978;DHT22;3015;51.390;12.256;2022-08-24T06:21:11;18.50;60.30
5978;DHT22;3015;51.390;12.256;2022-08-24T06:23:38;18.70;99.90
5978;DHT22;3015;51.390;12.256;2022-08-24T06:26:05;18.90;1.00
5978;DHT22;3015;51.390;12.256;2022-08-24T06:28:57;19.10;99.90
5978;DHT22;3015;51.390;12.256;2022-08-24T06:31:25;19.40;99.90
5978;DHT22;3015;51.390;12.256;2022-08-24T06:33:50;19.60;1.00
5978;DHT22;3015;51.390;12.256;2022-08-24T06:36:16;19.80;1.00
5978;DHT22;3015;51.390;12.256;2022-08-24T06:38:42;19.90;99.90
5978;DHT22;3015;51.390;12.256;2022-08-24T06:41:08;20.20;99.90
5978;DHT22;3015;51.390;12.256;2022-08-24T06:43:34;20.40;1.00
5978;DHT22;3015;51.390;12.256;2022-08-24T06:46:01;20.50;99.90
5978;DHT22;3015;51.390;12.256;2022-08-24T06:48:27;20.90;99.90
5978;DHT22;3015;51.390;12.256;2022-08-24T06:50:54;21.20;99.90
5978;DHT22;3015;51.390;12.256;2022-08-24T06:53:20;21.40;1.00
5978;DHT22;3015;51.390;12.256;2022-08-24T06:55:52;22.10;1.00
5978;DHT22;3015;51.390;12.256;2022-08-24T06:58:19;22.70;1.00
5978;DHT22;3015;51.390;12.256;2022-08-24T07:00:45;23.30;1.00
5978;DHT22;3015;51.390;12.256;2022-08-24T07:03:11;23.90;99.90
5978;DHT22;3015;51.390;12.256;2022-08-24T07:05:37;24.60;99.90
5978;DHT22;3015;51.390;12.256;2022-08-24T07:08:04;25.40;99.90
5978;DHT22;3015;51.390;12.256;2022-08-24T07:10:30;26.30;99.90
5978;DHT22;3015;51.390;12.256;2022-08-24T07:12:56;27.20;99.90
5978;DHT22;3015;51.390;12.256;2022-08-24T07:15:22;27.80;99.90
5978;DHT22;3015;51.390;12.256;2022-08-24T07:17:48;28.30;99.90
5978;DHT22;3015;51.390;12.256;2022-08-24T07:20:15;28.50;99.90
5978;DHT22;3015;51.390;12.256;2022-08-24T07:22:42;29.50;99.90
5978;DHT22;3015;51.390;12.256;2022-08-24T07:25:10;30.00;99.90
5978;DHT22;3015;51.390;12.256;2022-08-24T07:27:36;30.30;99.90
5978;DHT22;3015;51.390;12.256;2022-08-24T07:30:04;30.80;99.90
5978;DHT22;3015;51.390;12.256;2022-08-24T07:32:31;31.10;99.90
5978;DHT22;3015;51.390;12.256;2022-08-24T07:34:58;31.90;99.90
5978;DHT22;3015;51.390;12.256;2022-08-24T07:37:24;32.40;99.90
5978;DHT22;3015;51.390;12.256;2022-08-24T07:39:50;32.50;99.90
5978;DHT22;3015;51.390;12.256;2022-08-24T07:42:15;33.30;99.90
5978;DHT22;3015;51.390;12.256;2022-08-24T07:44:41;33.50;99.90
5978;DHT22;3015;51.390;12.256;2022-08-24T07:47:07;34.40;99.90
5978;DHT22;3015;51.390;12.256;2022-08-24T07:49:33;35.60;99.90
5978;DHT22;3015;51.390;12.256;2022-08-24T07:51:59;35.40;99.90
5978;DHT22;3015;51.390;12.256;2022-08-24T07:54:25;35.40;99.90
5978;DHT22;3015;51.390;12.256;2022-08-24T07:56:53;35.80;99.90
5978;DHT22;3015;51.390;12.256;2022-08-24T07:59:19;36.30;99.90
5978;DHT22;3015;51.390;12.256;2022-08-24T08:01:45;37.20;99.90
5978;DHT22;3015;51.390;12.256;2022-08-24T08:04:11;37.70;99.90
5978;DHT22;3015;51.390;12.256;2022-08-24T08:06:40;38.00;99.90
5978;DHT22;3015;51.390;12.256;2022-08-24T08:09:05;38.10;99.90
5978;DHT22;3015;51.390;12.256;2022-08-24T08:11:31;38.10;99.90
5978;DHT22;3015;51.390;12.256;2022-08-24T08:13:57;37.40;99.90
5978;DHT22;3015;51.390;12.256;2022-08-24T08:16:22;37.60;99.90
5978;DHT22;3015;51.390;12.256;2022-08-24T08:18:48;38.00;99.90
5978;DHT22;3015;51.390;12.256;2022-08-24T08:21:14;38.40;99.90
5978;DHT22;3015;51.390;12.256;2022-08-24T08:23:58;38.60;99.90
5978;DHT22;3015;51.390;12.256;2022-08-24T08:26:47;38.90;99.90
5978;DHT22;3015;51.390;12.256;2022-08-24T08:29:15;39.60;99.90
5978;DHT22;3015;51.390;12.256;2022-08-24T08:31:42;40.20;99.90
5978;DHT22;3015;51.390;12.256;2022-08-24T08:34:09;39.70;99.90
5978;DHT22;3015;51.390;12.256;2022-08-24T08:36:36;39.30;99.90
5978;DHT22;3015;51.390;12.256;2022-08-24T08:39:04;37.90;99.90
5978;DHT22;3015;51.390;12.256;2022-08-24T09:14:51;42.10;99.90
5978;DHT22;3015;51.390;12.256;2022-08-24T09:20:15;42.80;99.90
5978;DHT22;3015;51.390;12.256;2022-08-24T09:22:45;43.30;99.90
5978;DHT22;3015;51.390;12.256;2022-08-24T09:28:31;42.80;99.90
5978;DHT22;3015;51.390;12.256;2022-08-24T09:31:12;41.40;99.90
5978;DHT22;3015;51.390;12.256;2022-08-24T09:44:30;41.00;99.90
5978;DHT22;3015;51.390;12.256;2022-08-24T09:47:11;41.60;99.90
5978;DHT22;3015;51.390;12.256;2022-08-24T09:50:03;42.10;99.90
5978;DHT22;3015;51.390;12.256;2022-08-24T10:04:29;41.30;99.90
5978;DHT22;3015;51.390;12.256;2022-08-24T10:07:23;41.70;99.90
5978;DHT22;3015;51.390;12.256;2022-08-24T10:10:15;41.40;99.90
5978;DHT22;3015;51.390;12.256;2022-08-24T10:15:55;42.70;99.90
5978;DHT22;3015;51.390;12.256;2022-08-24T10:19:22;43.20;99.90
5978;DHT22;3015;51.390;12.256;2022-08-24T10:24:09;42.90;99.90
5978;DHT22;3015;51.390;12.256;2022-08-24T10:26:43;43.40;99.90
5978;DHT22;3015;51.390;12.256;2022-08-24T10:29:31;43.50;99.90
5978;DHT22;3015;51.390;12.256;2022-08-24T10:46:38;43.90;99.90
5978;DHT22;3015;51.390;12.256;2022-08-24T10:49:39;44.10;99.90
5978;DHT22;3015;51.390;12.256;2022-08-24T10:55:30;41.60;99.90
5978;DHT22;3015;51.390;12.256;2022-08-24T11:01:19;42.90;99.90
5978;DHT22;3015;51.390;12.256;2022-08-24T11:06:39;41.70;99.90
5978;DHT22;3015;51.390;12.256;2022-08-24T11:09:14;40.40;99.90
5978;DHT22;3015;51.390;12.256;2022-08-24T11:11:45;38.90;99.90
5978;DHT22;3015;51.390;12.256;2022-08-24T11:16:43;38.10;99.90
5978;DHT22;3015;51.390;12.256;2022-08-24T11:19:28;38.10;99.90
5978;DHT22;3015;51.390;12.256;2022-08-24T11:21:56;37.40;99.90
5978;DHT22;3015;51.390;12.256;2022-08-24T11:24:36;36.60;99.90
5978;DHT22;3015;51.390;12.256;2022-08-24T11:27:26;35.40;99.90
5978;DHT22;3015;51.390;12.256;2022-08-24T11:29:55;35.50;99.90
5978;DHT22;3015;51.390;12.256;2022-08-24T11:34:53;37.00;99.90
5978;DHT22;3015;51.390;12.256;2022-08-24T11:37:26;38.30;99.90
5978;DHT22;3015;51.390;12.256;2022-08-24T11:39:55;39.20;99.90
5978;DHT22;3015;51.390;12.256;2022-08-24T11:44:53;38.40;99.90
5978;DHT22;3015;51.390;12.256;2022-08-24T12:01:11;35.40;99.90
5978;DHT22;3015;51.390;12.256;2022-08-24T12:03:42;35.00;99.90
5978;DHT22;3015;51.390;12.256;2022-08-24T12:09:24;37.40;99.90
5978;DHT22;3015;51.390;12.256;2022-08-24T12:12:05;38.40;99.90
5978;DHT22;3015;51.390;12.256;2022-08-24T12:17:29;39.00;99.90
5978;DHT22;3015;51.390;12.256;2022-08-24T12:20:10;38.60;99.90
5978;DHT22;3015;51.390;12.256;2022-08-24T12:22:38;39.30;99.90
5978;DHT22;3015;51.390;12.256;2022-08-24T12:25:06;39.40;99.90
5978;DHT22;3015;51.390;12.256;2022-08-24T12:27:53;40.20;99.90
5978;DHT22;3015;51.390;12.256;2022-08-24T12:30:19;41.10;99.90
5978;DHT22;3015;51.390;12.256;2022-08-24T12:33:16;40.80;99.90
5978;DHT22;3015;51.390;12.256;2022-08-24T12:35:51;40.50;99.90
5978;DHT22;3015;51.390;12.256;2022-08-24T12:38:26;40.20;99.90
5978;DHT22;3015;51.390;12.256;2022-08-24T12:40:56;40.50;99.90
5978;DHT22;3015;51.390;12.256;2022-08-24T12:43:26;39.40;99.90
5978;DHT22;3015;51.390;12.256;2022-08-24T12:46:00;39.70;99.90
5978;DHT22;3015;51.390;12.256;2022-08-24T12:48:41;39.30;99.90
5978;DHT22;3015;51.390;12.256;2022-08-24T12:59:36;40.20;99.90
5978;DHT22;3015;51.390;12.256;2022-08-24T13:02:26;40.00;99.90
5978;DHT22;3015;51.390;12.256;2022-08-24T13:09:47;40.30;99.90
5978;DHT22;3015;51.390;12.256;2022-08-24T13:17:50;40.20;99.90
5978;DHT22;3015;51.390;12.256;2022-08-24T13:20:26;40.60;99.90
5978;DHT22;3015;51.390;12.256;2022-08-24T13:28:40;40.60;99.90
5978;DHT22;3015;51.390;12.256;2022-08-24T13:33:51;41.10;99.90
5978;DHT22;3015;51.390;12.256;2022-08-24T13:42:23;42.10;99.90
5978;DHT22;3015;51.390;12.256;2022-08-24T13:45:07;42.20;99.90
5978;DHT22;3015;51.390;12.256;2022-08-24T13:53:53;42.00;99.90
5978;DHT22;3015;51.390;12.256;2022-08-24T13:59:18;39.70;99.90
5978;DHT22;3015;51.390;12.256;2022-08-24T14:07:54;39.50;99.90
5978;DHT22;3015;51.390;12.256;2022-08-24T14:10:43;38.40;99.90
5978;DHT22;3015;51.390;12.256;2022-08-24T14:13:55;38.90;99.90
5978;DHT22;3015;51.390;12.256;2022-08-24T14:16:54;39.40;99.90
5978;DHT22;3015;51.390;12.256;2022-08-24T14:19:54;39.80;99.90
5978;DHT22;3015;51.390;12.256;2022-08-24T14:22:47;40.20;99.90
5978;DHT22;3015;51.390;12.256;2022-08-24T14:25:22;39.60;99.90
5978;DHT22;3015;51.390;12.256;2022-08-24T14:46:06;39.10;99.90
5978;DHT22;3015;51.390;12.256;2022-08-24T14:57:12;39.10;99.90
5978;DHT22;3015;51.390;12.256;2022-08-24T15:07:35;39.00;99.90
5978;DHT22;3015;51.390;12.256;2022-08-24T15:10:09;39.10;99.90
5978;DHT22;3015;51.390;12.256;2022-08-24T15:12:52;39.10;99.90
5978;DHT22;3015;51.390;12.256;2022-08-24T15:23:43;38.60;99.90
5978;DHT22;3015;51.390;12.256;2022-08-24T15:26:36;38.50;99.90
5978;DHT22;3015;51.390;12.256;2022-08-24T15:29:14;38.50;99.90
5978;DHT22;3015;51.390;12.256;2022-08-24T15:31:41;38.70;99.90
5978;DHT22;3015;51.390;12.256;2022-08-24T15:34:07;38.60;99.90
5978;DHT22;3015;51.390;12.256;2022-08-24T15:36:33;38.60;99.90
5978;DHT22;3015;51.390;12.256;2022-08-24T15:39:01;38.50;99.90
5978;DHT22;3015;51.390;12.256;2022-08-24T15:41:34;38.30;99.90
5978;DHT22;3015;51.390;12.256;2022-08-24T15:44:06;38.20;99.90
5978;DHT22;3015;51.390;12.256;2022-08-24T15:46:42;38.10;99.90
5978;DHT22;3015;51.390;12.256;2022-08-24T15:49:18;38.00;99.90
5978;DHT22;3015;51.390;12.256;2022-08-24T15:51:53;37.70;99.90
5978;DHT22;3015;51.390;12.256;2022-08-24T15:56:53;37.30;99.90
5978;DHT22;3015;51.390;12.256;2022-08-24T16:02:16;37.30;99.90
5978;DHT22;3015;51.390;12.256;2022-08-24T16:10:56;36.60;99.90
5978;DHT22;3015;51.390;12.256;2022-08-24T16:13:31;36.40;99.90
5978;DHT22;3015;51.390;12.256;2022-08-24T16:16:11;36.00;99.90
5978;DHT22;3015;51.390;12.256;2022-08-24T16:18:53;35.90;99.90
5978;DHT22;3015;51.390;12.256;2022-08-24T16:21:49;36.00;99.90
5978;DHT22;3015;51.390;12.256;2022-08-24T16:32:30;34.70;99.90
5978;DHT22;3015;51.390;12.256;2022-08-24T16:37:33;33.80;99.90
5978;DHT22;3015;51.390;12.256;2022-08-24T16:39:59;33.40;99.90
5978;DHT22;3015;51.390;12.256;2022-08-24T16:42:27;32.70;99.90
5978;DHT22;3015;51.390;12.256;2022-08-24T16:44:55;32.40;99.90
5978;DHT22;3015;51.390;12.256;2022-08-24T16:47:22;31.90;99.90
5978;DHT22;3015;51.390;12.256;2022-08-24T16:49:48;31.60;99.90
5978;DHT22;3015;51.390;12.256;2022-08-24T16:52:14;31.20;99.90
5978;DHT22;3015;51.390;12.256;2022-08-24T16:54:40;30.90;99.90
5978;DHT22;3015;51.390;12.256;2022-08-24T16:57:27;30.70;99.90
5978;DHT22;3015;51.390;12.256;2022-08-24T16:59:54;30.30;99.90
5978;DHT22;3015;51.390;12.256;2022-08-24T17:02:20;30.20;99.90
5978;DHT22;3015;51.390;12.256;2022-08-24T17:04:47;30.00;99.90
5978;DHT22;3015;51.390;12.256;2022-08-24T17:07:15;29.80;99.90
5978;DHT22;3015;51.390;12.256;2022-08-24T17:09:43;29.50;99.90
5978;DHT22;3015;51.390;12.256;2022-08-24T17:12:10;29.30;99.90
5978;DHT22;3015;51.390;12.256;2022-08-24T17:14:36;29.10;99.90
5978;DHT22;3015;51.390;12.256;2022-08-24T17:17:06;28.90;99.90
5978;DHT22;3015;51.390;12.256;2022-08-24T17:19:32;28.70;99.90
5978;DHT22;3015;51.390;12.256;2022-08-24T17:21:58;28.50;99.90
5978;DHT22;3015;51.390;12.256;2022-08-24T17:24:23;28.30;99.90
5978;DHT22;3015;51.390;12.256;2022-08-24T17:26:49;28.10;99.90
5978;DHT22;3015;51.390;12.256;2022-08-24T17:29:17;28.10;99.90
5978;DHT22;3015;51.390;12.256;2022-08-24T17:31:44;27.90;99.90
5978;DHT22;3015;51.390;12.256;2022-08-24T17:34:10;27.80;99.90
5978;DHT22;3015;51.390;12.256;2022-08-24T17:36:37;27.70;99.90
5978;DHT22;3015;51.390;12.256;2022-08-24T17:39:04;27.50;99.90
5978;DHT22;3015;51.390;12.256;2022-08-24T17:41:32;27.30;99.90
5978;DHT22;3015;51.390;12.256;2022-08-24T17:43:59;27.10;99.90
5978;DHT22;3015;51.390;12.256;2022-08-24T17:46:26;27.00;99.90
5978;DHT22;3015;51.390;12.256;2022-08-24T17:48:53;26.80;99.90
5978;DHT22;3015;51.390;12.256;2022-08-24T17:51:20;26.50;99.90
5978;DHT22;3015;51.390;12.256;2022-08-24T17:53:46;26.40;99.90
5978;DHT22;3015;51.390;12.256;2022-08-24T17:56:13;26.30;99.90
5978;DHT22;3015;51.390;12.256;2022-08-24T17:58:40;26.40;99.90
5978;DHT22;3015;51.390;12.256;2022-08-24T18:01:24;26.30;99.90
5978;DHT22;3015;51.390;12.256;2022-08-24T18:03:52;26.20;99.90
5978;DHT22;3015;51.390;12.256;2022-08-24T18:06:20;26.10;99.90
5978;DHT22;3015;51.390;12.256;2022-08-24T18:08:48;26.10;99.90
5978;DHT22;3015;51.390;12.256;2022-08-24T18:11:14;25.80;99.90
5978;DHT22;3015;51.390;12.256;2022-08-24T18:13:41;25.70;99.90
5978;DHT22;3015;51.390;12.256;2022-08-24T18:16:12;25.50;99.90
5978;DHT22;3015;51.390;12.256;2022-08-24T18:18:40;25.30;99.90
5978;DHT22;3015;51.390;12.256;2022-08-24T18:21:06;25.10;99.90
5978;DHT22;3015;51.390;12.256;2022-08-24T18:23:32;24.90;99.90
5978;DHT22;3015;51.390;12.256;2022-08-24T18:25:58;24.80;99.90
5978;DHT22;3015;51.390;12.256;2022-08-24T18:28:23;24.70;99.90
5978;DHT22;3015;51.390;12.256;2022-08-24T18:30:49;24.50;99.90
5978;DHT22;3015;51.390;12.256;2022-08-24T18:33:15;24.30;99.90
5978;DHT22;3015;51.390;12.256;2022-08-24T18:35:42;24.20;99.90
5978;DHT22;3015;51.390;12.256;2022-08-24T18:38:08;24.10;99.90
5978;DHT22;3015;51.390;12.256;2022-08-24T18:40:34;23.90;99.90
5978;DHT22;3015;51.390;12.256;2022-08-24T18:43:02;23.80;99.90
5978;DHT22;3015;51.390;12.256;2022-08-24T18:45:29;23.70;99.90
5978;DHT22;3015;51.390;12.256;2022-08-24T18:47:55;23.50;99.90
5978;DHT22;3015;51.390;12.256;2022-08-24T18:50:21;23.40;99.90
5978;DHT22;3015;51.390;12.256;2022-08-24T18:56:19;23.20;99.90
5978;DHT22;3015;51.390;12.256;2022-08-24T18:58:45;23.10;99.90
5978;DHT22;3015;51.390;12.256;2022-08-24T19:01:10;23.00;99.90
5978;DHT22;3015;51.390;12.256;2022-08-24T19:03:36;22.90;99.90
5978;DHT22;3015;51.390;12.256;2022-08-24T19:06:02;22.90;99.90
5978;DHT22;3015;51.390;12.256;2022-08-24T19:08:28;22.80;99.90
5978;DHT22;3015;51.390;12.256;2022-08-24T19:10:54;22.60;99.90
5978;DHT22;3015;51.390;12.256;2022-08-24T19:13:23;22.50;99.90
5978;DHT22;3015;51.390;12.256;2022-08-24T19:15:49;22.40;99.90
5978;DHT22;3015;51.390;12.256;2022-08-24T19:18:19;22.40;99.90
5978;DHT22;3015;51.390;12.256;2022-08-24T19:20:47;22.30;99.90
5978;DHT22;3015;51.390;12.256;2022-08-24T19:23:23;22.20;99.90
5978;DHT22;3015;51.390;12.256;2022-08-24T19:25:50;22.20;99.90
5978;DHT22;3015;51.390;12.256;2022-08-24T19:28:20;22.10;99.90
5978;DHT22;3015;51.390;12.256;2022-08-24T19:30:48;22.10;99.90
5978;DHT22;3015;51.390;12.256;2022-08-24T19:33:22;21.90;99.90
5978;DHT22;3015;51.390;12.256;2022-08-24T19:35:50;21.80;99.90
5978;DHT22;3015;51.390;12.256;2022-08-24T19:38:16;21.70;99.90
5978;DHT22;3015;51.390;12.256;2022-08-24T19:40:43;21.70;99.90
5978;DHT22;3015;51.390;12.256;2022-08-24T19:43:09;21.60;99.90
5978;DHT22;3015;51.390;12.256;2022-08-24T19:45:34;21.60;99.90
5978;DHT22;3015;51.390;12.256;2022-08-24T19:48:20;21.50;99.90
5978;DHT22;3015;51.390;12.256;2022-08-24T19:50:47;21.50;99.90
5978;DHT22;3015;51.390;12.256;2022-08-24T19:53:13;21.40;99.90
5978;DHT22;3015;51.390;12.256;2022-08-24T19:55:39;21.40;99.90
5978;DHT22;3015;51.390;12.256;2022-08-24T19:58:28;21.30;99.90
5978;DHT22;3015;51.390;12.256;2022-08-24T20:00:56;21.20;99.90
5978;DHT22;3015;51.390;12.256;2022-08-24T20:03:23;21.10;99.90
5978;DHT22;3015;51.390;12.256;2022-08-24T20:05:49;21.10;99.90
5978;DHT22;3015;51.390;12.256;2022-08-24T20:08:14;21.00;99.90
5978;DHT22;3015;51.390;12.256;2022-08-24T20:10:40;21.00;99.90
5978;DHT22;3015;51.390;12.256;2022-08-24T20:13:06;20.90;99.90